createdAt,value
2022-08-17T00:01:05.035Z,97921.09
2022-08-17T00:02:22.476Z,97911.34
2022-08-17T00:03:36.208Z,97913.16
2022-08-17T00:04:52.730Z,97908.09
2022-08-17T00:06:00.103Z,97909.91
2022-08-17T00:07:03.549Z,97911.09
2022-08-17T00:08:11.411Z,97916.16
2022-08-17T00:09:18.774Z,97909.47
2022-08-17T00:10:23.282Z,97911.28
2022-08-17T00:11:30.117Z,97916.59
2022-08-17T00:12:44.343Z,97925.31
2022-08-17T00:13:52.547Z,97919.22
2022-08-17T00:14:59.860Z,97918.22
2022-08-17T00:16:06.980Z,97924.09
2022-08-17T00:17:11.854Z,97915.19
2022-08-17T00:19:00.360Z,97923.72
2022-08-17T00:19:41.675Z,97924.94
2022-08-17T00:20:45.389Z,97912.72
2022-08-17T00:22:29.787Z,97914.53
2022-08-17T00:23:16.989Z,97917.41
2022-08-17T00:24:22.500Z,97915.94
2022-08-17T00:25:26.481Z,97910.44
2022-08-17T00:26:44.241Z,97906.59
2022-08-17T00:27:48.696Z,97915.69
2022-08-17T00:28:53.682Z,97915.69
2022-08-17T00:29:57.499Z,97909.41
2022-08-17T00:31:02.595Z,97914.69
2022-08-17T00:33:12.122Z,97913.88
2022-08-17T00:33:34.247Z,97911.44
2022-08-17T00:34:38.552Z,97915.69
2022-08-17T00:35:43.730Z,97913.88
2022-08-17T00:36:47.249Z,97916.34
2022-08-17T00:37:51.818Z,97919.78
2022-08-17T00:38:56.522Z,97922.81
2022-08-17T00:40:00.149Z,97911.00
2022-08-17T00:41:11.714Z,97909.59
2022-08-17T00:42:16.189Z,97911.59
2022-08-17T00:43:24.768Z,97908.34
2022-08-17T00:44:31.316Z,97906.72
2022-08-17T00:45:36.011Z,97916.47
2022-08-17T00:46:43.976Z,97913.00
2022-08-17T00:47:49.751Z,97916.25
2022-08-17T00:48:55.374Z,97917.06
2022-08-17T00:49:59.878Z,97916.25
2022-08-17T00:51:09.478Z,97920.72
2022-08-17T00:52:17.056Z,97923.56
2022-08-17T00:53:22.724Z,97922.75
2022-08-17T00:54:30.038Z,97920.28
2022-08-17T00:55:34.699Z,97920.50
2022-08-17T00:56:51.426Z,97921.88
2022-08-17T00:57:59.439Z,97923.25
2022-08-17T00:59:04.758Z,97923.44
2022-08-17T01:00:13.561Z,97923.66
2022-08-17T01:01:21.474Z,97919.78
2022-08-17T01:02:27.069Z,97919.31
2022-08-17T01:03:31.446Z,97923.34
2022-08-17T01:04:37.940Z,97914.03
2022-08-17T01:05:42.668Z,97913.41
2022-08-17T01:07:08.090Z,97913.97
2022-08-17T01:08:13.907Z,97919.44
2022-08-17T01:09:19.899Z,97916.78
2022-08-17T01:11:01.122Z,97913.34
2022-08-17T01:12:03.738Z,97918.81
2022-08-17T01:13:07.869Z,97923.28
2022-08-17T01:14:12.540Z,97925.13
2022-08-17T01:15:17.989Z,97920.03
2022-08-17T01:16:26.021Z,97920.84
2022-08-17T01:17:32.107Z,97925.31
2022-08-17T01:18:36.929Z,97916.56
2022-08-17T01:19:42.866Z,97914.13
2022-08-17T01:20:51.142Z,97917.16
2022-08-17T01:21:59.978Z,97920.38
2022-08-17T01:23:06.028Z,97919.13
2022-08-17T01:24:12.868Z,97912.78
2022-08-17T01:25:17.956Z,97913.97
2022-08-17T01:26:22.414Z,97915.78
2022-08-17T01:27:28.408Z,97910.31
2022-08-17T01:28:53.820Z,97922.53
2022-08-17T01:30:01.564Z,97916.81
2022-08-17T01:31:08.321Z,97927.34
2022-08-17T01:32:15.584Z,97925.72
2022-08-17T01:33:19.516Z,97926.53
2022-08-17T01:34:42.745Z,97934.25
2022-08-17T01:35:48.209Z,97932.63
2022-08-17T01:36:53.941Z,97921.47
2022-08-17T01:37:57.672Z,97927.94
2022-08-17T01:39:04.218Z,97931.34
2022-08-17T01:40:15.047Z,97925.81
2022-08-17T01:41:21.169Z,97925.56
2022-08-17T01:42:32.828Z,97926.56
2022-08-17T01:43:41.977Z,97931.84
2022-08-17T01:44:45.874Z,97930.84
2022-08-17T01:46:02.828Z,97936.94
2022-08-17T01:47:07.698Z,97935.28
2022-08-17T01:48:13.156Z,97928.19
2022-08-17T01:49:16.869Z,97935.09
2022-08-17T01:50:24.707Z,97935.28
2022-08-17T01:51:32.955Z,97939.56
2022-08-17T01:52:38.337Z,97937.94
2022-08-17T01:53:46.076Z,97937.28
2022-08-17T01:54:53.789Z,97940.31
2022-08-17T01:56:08.428Z,97945.16
2022-08-17T01:57:13.689Z,97937.63
2022-08-17T02:00:06.277Z,97944.28
2022-08-17T02:01:15.252Z,97947.53
2022-08-17T02:02:30.774Z,97952.81
2022-08-17T02:03:36.210Z,97952.00
2022-08-17T02:04:41.273Z,97958.09
2022-08-17T02:05:45.898Z,97953.63
2022-08-17T02:06:54.075Z,97949.16
2022-08-17T02:08:00.875Z,97948.19
2022-08-17T02:09:06.637Z,97947.97
2022-08-17T02:10:21.979Z,97934.78
2022-08-17T02:11:32.936Z,97935.81
2022-08-17T02:12:39.874Z,97937.44
2022-08-17T02:15:04.921Z,97940.06
2022-08-17T02:16:08.831Z,97932.97
2022-08-17T02:17:13.839Z,97928.50
2022-08-17T02:18:17.628Z,97943.16
2022-08-17T02:19:22.822Z,97944.78
2022-08-17T02:20:41.159Z,97935.25
2022-08-17T02:23:58.620Z,97929.38
2022-08-17T02:25:04.192Z,97925.47
2022-08-17T02:26:09.398Z,97932.94
2022-08-17T02:27:33.416Z,97933.94
2022-08-17T02:29:08.727Z,97928.69
2022-08-17T02:30:59.618Z,97933.94
2022-08-17T02:31:40.237Z,97934.13
2022-08-17T02:33:41.598Z,97935.13
2022-08-17T02:34:48.438Z,97927.41
2022-08-17T02:35:52.587Z,97928.22
2022-08-17T02:36:57.630Z,97929.84
2022-08-17T02:38:02.147Z,97930.06
2022-08-17T02:39:08.737Z,97931.41
2022-08-17T02:40:12.832Z,97936.25
2022-08-17T02:41:22.216Z,97934.00
2022-08-17T02:42:28.320Z,97933.34
2022-08-17T02:43:51.618Z,97931.72
2022-08-17T02:44:55.931Z,97943.06
2022-08-17T02:46:00.776Z,97936.19
2022-08-17T02:47:04.948Z,97939.63
2022-08-17T02:48:09.934Z,97938.63
2022-08-17T02:49:13.587Z,97941.09
2022-08-17T02:50:19.778Z,97937.44
2022-08-17T02:51:23.498Z,97938.06
2022-08-17T02:52:43.368Z,97939.53
2022-08-17T02:53:47.640Z,97937.91
2022-08-17T02:54:52.109Z,97934.25
2022-08-17T02:55:55.549Z,97937.69
2022-08-17T02:57:03.658Z,97936.88
2022-08-17T02:58:07.781Z,97938.72
2022-08-17T02:59:12.369Z,97933.44
2022-08-17T03:00:19.128Z,97934.41
2022-08-17T03:01:23.664Z,97930.97
2022-08-17T03:02:29.866Z,97937.06
2022-08-17T03:03:34.565Z,97925.88
2022-08-17T03:04:38.340Z,97935.63
2022-08-17T03:05:43.339Z,97939.25
2022-08-17T03:06:46.686Z,97937.81
2022-08-17T03:07:51.128Z,97939.00
2022-08-17T03:08:54.898Z,97933.28
2022-08-17T03:09:59.770Z,97934.47
2022-08-17T03:11:03.143Z,97934.66
2022-08-17T03:12:11.385Z,97932.00
2022-08-17T03:13:15.798Z,97932.22
2022-08-17T03:14:20.676Z,97930.59
2022-08-17T03:15:31.927Z,97932.41
2022-08-17T03:16:36.440Z,97935.19
2022-08-17T03:17:40.163Z,97934.38
2022-08-17T03:18:44.671Z,97930.78
2022-08-17T03:19:48.185Z,97938.03
2022-08-17T03:20:52.564Z,97938.56
2022-08-17T03:21:55.929Z,97939.94
2022-08-17T03:23:03.235Z,97945.94
2022-08-17T03:24:09.014Z,97941.88
2022-08-17T03:25:15.921Z,97940.25
2022-08-17T03:26:23.099Z,97942.25
2022-08-17T03:27:29.159Z,97941.44
2022-08-17T03:28:32.450Z,97944.25
2022-08-17T03:29:36.967Z,97952.31
2022-08-17T03:30:40.675Z,97943.97
2022-08-17T03:31:45.820Z,97954.88
2022-08-17T03:32:50.590Z,97959.06
2022-08-17T03:33:54.906Z,97957.63
2022-08-17T03:35:04.951Z,97959.78
2022-08-17T03:36:10.106Z,97954.88
2022-08-17T03:37:13.531Z,97958.50
2022-08-17T03:38:18.130Z,97957.69
2022-08-17T03:39:21.467Z,97961.94
2022-08-17T03:40:34.392Z,97961.59
2022-08-17T03:41:50.320Z,97958.78
2022-08-17T03:42:55.202Z,97961.22
2022-08-17T03:43:59.451Z,97960.25
2022-08-17T03:45:04.499Z,97955.13
2022-08-17T03:46:28.453Z,97957.78
2022-08-17T03:47:56.638Z,97954.31
2022-08-17T03:49:17.921Z,97960.59
2022-08-17T03:50:39.491Z,97956.16
2022-08-17T03:52:01.462Z,97959.44
2022-08-17T03:53:38.429Z,97961.06
2022-08-17T03:55:01.018Z,97962.50
2022-08-17T03:56:23.862Z,97966.41
2022-08-17T03:57:28.686Z,97972.13
2022-08-17T03:58:33.408Z,97966.47
2022-08-17T03:59:38.781Z,97972.22
2022-08-17T04:00:45.960Z,97977.94
2022-08-17T04:01:53.185Z,97981.81
2022-08-17T04:02:56.933Z,97975.56
2022-08-17T04:04:01.565Z,97984.28
2022-08-17T04:05:07.000Z,97984.91
2022-08-17T04:06:10.437Z,97985.72
2022-08-17T04:07:14.888Z,97991.81
2022-08-17T04:08:18.461Z,97989.03
2022-08-17T04:09:23.062Z,97988.63
2022-08-17T04:10:26.882Z,97994.72
2022-08-17T04:11:31.380Z,97988.63
2022-08-17T04:12:45.656Z,97993.75
2022-08-17T04:13:50.571Z,97985.84
2022-08-17T04:14:55.215Z,97990.72
2022-08-17T04:16:00.357Z,97992.00
2022-08-17T04:17:04.741Z,97987.00
2022-08-17T04:18:08.039Z,97985.63
2022-08-17T04:19:15.613Z,97984.88
2022-08-17T04:20:21.036Z,97994.22
2022-08-17T04:21:25.720Z,97984.75
2022-08-17T04:22:30.009Z,97982.56
2022-08-17T04:23:38.220Z,97984.03
2022-08-17T04:24:41.569Z,97987.28
2022-08-17T04:25:48.527Z,97983.47
2022-08-17T04:26:54.366Z,97985.94
2022-08-17T04:27:59.338Z,97992.66
2022-08-17T04:29:04.119Z,97990.84
2022-08-17T04:30:09.929Z,97986.81
2022-08-17T04:31:14.229Z,97986.28
2022-08-17T04:32:21.774Z,97983.06
2022-08-17T04:33:44.408Z,97984.34
2022-08-17T04:34:47.717Z,97986.59
2022-08-17T04:35:53.686Z,97985.41
2022-08-17T04:36:57.589Z,97985.84
2022-08-17T04:38:01.928Z,97990.75
2022-08-17T04:39:05.480Z,97993.81
2022-08-17T04:40:28.070Z,97996.72
2022-08-17T04:41:49.951Z,98005.03
2022-08-17T04:43:03.141Z,98001.03
2022-08-17T04:44:09.274Z,98003.09
2022-08-17T04:45:13.139Z,98000.28
2022-08-17T04:46:21.419Z,98006.00
2022-08-17T04:47:24.743Z,98003.81
2022-08-17T04:48:36.499Z,97998.78
2022-08-17T04:49:41.587Z,97998.38
2022-08-17T04:50:48.572Z,98002.91
2022-08-17T04:51:56.240Z,98010.06
2022-08-17T04:53:03.879Z,98014.38
2022-08-17T04:54:10.596Z,98010.16
2022-08-17T04:55:13.857Z,98009.44
2022-08-17T04:56:19.316Z,98006.03
2022-08-17T04:57:22.682Z,98011.34
2022-08-17T04:58:27.098Z,98003.44
2022-08-17T04:59:33.237Z,98004.50
2022-08-17T05:00:37.517Z,98009.03
2022-08-17T05:01:44.004Z,98005.59
2022-08-17T05:02:49.969Z,98012.53
2022-08-17T05:03:56.502Z,98010.13
2022-08-17T05:04:59.669Z,98005.47
2022-08-17T05:06:04.320Z,98009.16
2022-08-17T05:07:08.624Z,98007.94
2022-08-17T05:08:12.029Z,98010.59
2022-08-17T05:09:17.716Z,98003.75
2022-08-17T05:10:21.188Z,98009.06
2022-08-17T05:11:26.660Z,98008.03
2022-08-17T05:12:29.928Z,98005.28
2022-08-17T05:13:34.341Z,98013.00
2022-08-17T05:14:40.878Z,98010.81
2022-08-17T05:15:47.677Z,98009.00
2022-08-17T05:16:52.400Z,98010.25
2022-08-17T05:17:55.837Z,98011.69
2022-08-17T05:19:00.478Z,98014.75
2022-08-17T05:20:04.941Z,98009.06
2022-08-17T05:21:09.706Z,98013.94
2022-08-17T05:22:15.058Z,98004.19
2022-08-17T05:23:21.317Z,98008.66
2022-08-17T05:24:43.070Z,98012.34
2022-08-17T05:25:51.745Z,98018.25
2022-08-17T05:26:56.576Z,98016.41
2022-08-17T05:28:00.230Z,98011.09
2022-08-17T05:29:06.789Z,98011.94
2022-08-17T05:30:13.438Z,98015.38
2022-08-17T05:31:21.118Z,98015.75
2022-08-17T05:32:38.770Z,98017.16
2022-08-17T05:33:46.298Z,98018.13
2022-08-17T05:35:00.713Z,98020.34
2022-08-17T05:36:07.975Z,98011.53
2022-08-17T05:37:11.617Z,98015.13
2022-08-17T05:38:16.779Z,98018.31
2022-08-17T05:39:20.247Z,98009.84
2022-08-17T05:40:26.351Z,98015.22
2022-08-17T05:41:37.087Z,98011.22
2022-08-17T05:42:40.715Z,98013.91
2022-08-17T05:43:45.170Z,98015.59
2022-08-17T05:44:48.740Z,98011.94
2022-08-17T05:45:59.744Z,98015.66
2022-08-17T05:47:03.429Z,98018.53
2022-08-17T05:48:08.990Z,98021.84
2022-08-17T05:49:14.976Z,98017.84
2022-08-17T05:50:27.154Z,98023.00
2022-08-17T05:51:49.461Z,98022.06
2022-08-17T05:52:58.563Z,98024.75
2022-08-17T05:54:14.618Z,98017.97
2022-08-17T05:55:22.129Z,98018.47
2022-08-17T05:56:34.610Z,98023.59
2022-08-17T05:57:50.302Z,98014.22
2022-08-17T05:59:04.519Z,98018.31
2022-08-17T06:00:15.519Z,98011.72
2022-08-17T06:01:30.273Z,98016.09
2022-08-17T06:02:45.568Z,98013.44
2022-08-17T06:03:58.508Z,98020.94
2022-08-17T06:05:19.688Z,98019.66
2022-08-17T06:06:36.446Z,98017.78
2022-08-17T06:07:48.067Z,98017.25
2022-08-17T06:08:55.688Z,98025.00
2022-08-17T06:10:02.973Z,98024.13
2022-08-17T06:11:21.150Z,98022.22
2022-08-17T06:12:38.049Z,98019.50
2022-08-17T06:13:53.978Z,98018.81
2022-08-17T06:15:10.961Z,98029.25
2022-08-17T06:16:33.720Z,98033.00
2022-08-17T06:17:42.838Z,98029.81
2022-08-17T06:18:48.910Z,98025.81
2022-08-17T06:19:56.629Z,98029.31
2022-08-17T06:21:02.560Z,98018.31
2022-08-17T06:22:07.780Z,98028.72
2022-08-17T06:23:19.790Z,98021.94
2022-08-17T06:24:28.578Z,98019.22
2022-08-17T06:25:35.596Z,98019.34
2022-08-17T06:26:43.303Z,98020.25
2022-08-17T06:27:53.657Z,98025.69
2022-08-17T06:29:00.892Z,98022.53
2022-08-17T06:30:09.559Z,98025.78
2022-08-17T06:31:20.354Z,98019.19
2022-08-17T06:32:23.787Z,98016.84
2022-08-17T06:33:32.653Z,98022.56
2022-08-17T06:34:36.119Z,98024.25
2022-08-17T06:35:50.914Z,98020.03
2022-08-17T06:37:01.964Z,98012.88
2022-08-17T06:38:17.311Z,98013.72
2022-08-17T06:39:45.610Z,98015.13
2022-08-17T06:41:06.529Z,98016.50
2022-08-17T06:42:54.982Z,98024.88
2022-08-17T06:44:01.019Z,98027.06
2022-08-17T06:45:10.098Z,98019.56
2022-08-17T06:46:21.033Z,98015.53
2022-08-17T06:47:29.294Z,98022.28
2022-08-17T06:48:40.525Z,98023.09
2022-08-17T06:49:54.621Z,98021.50
2022-08-17T06:51:00.929Z,98017.19
2022-08-17T06:52:42.303Z,98020.16
2022-08-17T06:53:42.899Z,98024.72
2022-08-17T06:54:54.365Z,98026.63
2022-08-17T06:56:00.370Z,98020.97
2022-08-17T06:57:10.715Z,98021.53
2022-08-17T06:58:16.909Z,98026.88
2022-08-17T06:59:23.881Z,98021.72
2022-08-17T07:00:33.825Z,98013.91
2022-08-17T07:01:39.017Z,98029.50
2022-08-17T07:03:02.117Z,98027.63
2022-08-17T07:04:12.271Z,98026.00
2022-08-17T07:05:17.459Z,98027.66
2022-08-17T07:06:24.099Z,98028.97
2022-08-17T07:07:57.230Z,98027.34
2022-08-17T07:09:05.669Z,98025.38
2022-08-17T07:10:09.720Z,98021.28
2022-08-17T07:11:17.539Z,98025.31
2022-08-17T07:12:25.439Z,98032.00
2022-08-17T07:13:35.777Z,98035.78
2022-08-17T07:14:45.140Z,98036.00
2022-08-17T07:15:55.111Z,98032.16
2022-08-17T07:17:05.398Z,98038.81
2022-08-17T07:18:08.918Z,98043.91
2022-08-17T07:19:16.199Z,98036.50
2022-08-17T07:20:22.972Z,98043.09
2022-08-17T07:21:38.739Z,98039.16
2022-08-17T07:22:55.217Z,98045.50
2022-08-17T07:24:29.310Z,98041.84
2022-08-17T07:25:35.347Z,98046.88
2022-08-17T07:26:39.121Z,98042.72
2022-08-17T07:27:46.023Z,98038.53
2022-08-17T07:28:50.012Z,98037.84
2022-08-17T07:29:58.037Z,98033.69
2022-08-17T07:31:01.224Z,98033.09
2022-08-17T07:32:05.960Z,98031.13
2022-08-17T07:33:13.402Z,98038.69
2022-08-17T07:34:19.330Z,98035.38
2022-08-17T07:35:40.916Z,98037.41
2022-08-17T07:36:45.874Z,98029.88
2022-08-17T07:37:54.340Z,98038.38
2022-08-17T07:38:59.563Z,98029.25
2022-08-17T07:40:22.697Z,98030.41
2022-08-17T07:41:27.062Z,98031.22
2022-08-17T07:43:23.785Z,98034.28
2022-08-17T07:44:27.454Z,98034.09
2022-08-17T07:45:49.475Z,98030.69
2022-08-17T07:47:12.358Z,98032.63
2022-08-17T07:48:20.757Z,98034.34
2022-08-17T07:49:36.217Z,98032.19
2022-08-17T07:50:39.795Z,98034.25
2022-08-17T07:52:00.063Z,98041.56
2022-08-17T07:53:24.521Z,98040.91
2022-08-17T07:54:35.951Z,98045.22
2022-08-17T07:55:41.759Z,98044.19
2022-08-17T07:56:48.012Z,98042.00
2022-08-17T07:57:56.309Z,98039.41
2022-08-17T07:59:13.878Z,98034.63
2022-08-17T08:00:26.717Z,98037.78
2022-08-17T08:01:39.432Z,98041.06
2022-08-17T08:02:48.447Z,98039.75
2022-08-17T08:03:52.784Z,98039.28
2022-08-17T08:05:08.670Z,98043.44
2022-08-17T08:06:22.208Z,98046.16
2022-08-17T08:07:29.677Z,98042.25
2022-08-17T08:08:38.454Z,98044.28
2022-08-17T08:09:43.322Z,98035.53
2022-08-17T08:11:00.491Z,98043.38
2022-08-17T08:12:33.359Z,98045.47
2022-08-17T08:13:42.875Z,98047.38
2022-08-17T08:14:54.740Z,98049.00
2022-08-17T08:16:24.591Z,98043.81
2022-08-17T08:17:35.860Z,98048.72
2022-08-17T08:18:56.116Z,98036.53
2022-08-17T08:20:51.379Z,98046.78
2022-08-17T08:21:35.020Z,98043.47
2022-08-17T08:22:47.885Z,98038.06
2022-08-17T08:23:57.855Z,98047.59
2022-08-17T08:25:13.878Z,98045.00
2022-08-17T08:26:26.608Z,98047.09
2022-08-17T08:27:39.353Z,98048.78
2022-08-17T08:28:47.279Z,98044.75
2022-08-17T08:29:56.073Z,98042.59
2022-08-17T08:31:11.027Z,98049.19
2022-08-17T08:32:21.147Z,98047.13
2022-08-17T08:33:33.549Z,98052.56
2022-08-17T08:35:00.746Z,98054.59
2022-08-17T08:37:12.770Z,98051.34
2022-08-17T08:37:51.821Z,98044.16
2022-08-17T08:39:01.326Z,98044.03
2022-08-17T08:40:13.396Z,98037.06
2022-08-17T08:41:31.081Z,98034.28
2022-08-17T08:42:38.559Z,98031.59
2022-08-17T08:44:03.889Z,98033.56
2022-08-17T08:45:13.890Z,98031.59
2022-08-17T08:46:26.608Z,98038.59
2022-08-17T08:47:40.596Z,98034.41
2022-08-17T08:49:10.274Z,98031.69
2022-08-17T08:50:37.120Z,98034.75
2022-08-17T08:51:50.680Z,98032.38
2022-08-17T08:53:06.025Z,98038.19
2022-08-17T08:54:26.743Z,98041.13
2022-08-17T08:55:37.979Z,98039.41
2022-08-17T08:57:19.487Z,98034.06
2022-08-17T08:58:32.226Z,98038.19
2022-08-17T08:59:42.124Z,98038.16
2022-08-17T09:00:49.491Z,98034.53
2022-08-17T09:02:02.107Z,98030.16
2022-08-17T09:03:20.321Z,98032.09
2022-08-17T09:05:12.992Z,98025.91
2022-08-17T09:06:32.252Z,98032.66
2022-08-17T09:07:51.450Z,98033.63
2022-08-17T09:09:08.948Z,98034.94
2022-08-17T09:10:26.897Z,98040.22
2022-08-17T09:12:01.374Z,98026.38
2022-08-17T09:13:10.584Z,98033.69
2022-08-17T09:14:21.040Z,98031.94
2022-08-17T09:15:28.918Z,98030.88
2022-08-17T09:16:36.318Z,98034.81
2022-08-17T09:17:42.112Z,98028.41
2022-08-17T09:19:00.150Z,98039.53
2022-08-17T09:20:28.166Z,98041.22
2022-08-17T09:21:47.961Z,98040.34
2022-08-17T09:23:00.072Z,98033.00
2022-08-17T09:24:11.677Z,98032.75
2022-08-17T09:25:19.069Z,98036.41
2022-08-17T09:26:25.755Z,98043.75
2022-08-17T09:27:35.191Z,98041.84
2022-08-17T09:28:39.992Z,98039.28
2022-08-17T09:29:48.395Z,98048.03
2022-08-17T09:30:54.022Z,98038.75
2022-08-17T09:31:58.649Z,98047.91
2022-08-17T09:33:06.609Z,98043.22
2022-08-17T09:34:14.287Z,98046.50
2022-08-17T09:35:37.183Z,98046.19
2022-08-17T09:36:47.081Z,98041.16
2022-08-17T09:38:09.610Z,98040.84
2022-08-17T09:39:16.963Z,98040.72
2022-08-17T09:40:26.724Z,98032.78
2022-08-17T09:41:37.745Z,98037.97
2022-08-17T09:42:46.158Z,98035.88
2022-08-17T09:43:56.200Z,98041.47
2022-08-17T09:45:23.427Z,98038.53
2022-08-17T09:46:31.023Z,98039.84
2022-08-17T09:47:45.766Z,98046.03
2022-08-17T09:48:55.561Z,98038.59
2022-08-17T09:50:04.477Z,98035.69
2022-08-17T09:51:11.698Z,98036.81
2022-08-17T09:52:20.998Z,98054.75
2022-08-17T09:53:25.686Z,98042.25
2022-08-17T09:54:40.159Z,98042.94
2022-08-17T09:56:02.808Z,98038.75
2022-08-17T09:57:29.154Z,98045.63
2022-08-17T09:58:44.499Z,98036.38
2022-08-17T09:59:57.370Z,98033.81
2022-08-17T10:01:06.873Z,98033.47
2022-08-17T10:02:26.641Z,98032.34
2022-08-17T10:03:42.032Z,98032.81
2022-08-17T10:04:55.501Z,98028.19
2022-08-17T10:06:06.594Z,98037.63
2022-08-17T10:07:17.169Z,98033.28
2022-08-17T10:08:34.027Z,98031.72
2022-08-17T10:09:45.523Z,98033.16
2022-08-17T10:10:59.089Z,98030.41
2022-08-17T10:12:20.227Z,98020.63
2022-08-17T10:13:31.769Z,98022.53
2022-08-17T10:14:44.435Z,98027.00
2022-08-17T10:15:54.818Z,98024.28
2022-08-17T10:17:04.756Z,98017.84
2022-08-17T10:18:24.440Z,98019.72
2022-08-17T10:19:39.193Z,98015.56
2022-08-17T10:21:14.322Z,98022.41
2022-08-17T10:22:43.658Z,98021.16
2022-08-17T10:24:06.848Z,98020.47
2022-08-17T10:25:42.887Z,98020.59
2022-08-17T10:26:57.060Z,98026.03
2022-08-17T10:28:19.755Z,98025.25
2022-08-17T10:29:28.984Z,98026.66
2022-08-17T10:30:34.268Z,98028.84
2022-08-17T10:31:42.119Z,98023.50
2022-08-17T10:32:48.713Z,98015.47
2022-08-17T10:34:04.740Z,98020.53
2022-08-17T10:35:34.444Z,98021.41
2022-08-17T10:37:03.947Z,98021.56
2022-08-17T10:38:33.368Z,98019.22
2022-08-17T10:39:50.379Z,98025.63
2022-08-17T10:41:09.918Z,98018.56
2022-08-17T10:42:32.647Z,98025.84
2022-08-17T10:44:40.320Z,98026.88
2022-08-17T10:45:23.698Z,98027.44
2022-08-17T10:46:31.791Z,98019.84
2022-08-17T10:48:05.329Z,98025.69
2022-08-17T10:49:32.897Z,98033.28
2022-08-17T10:50:51.969Z,98030.69
2022-08-17T10:51:57.146Z,98024.59
2022-08-17T10:53:00.083Z,98025.88
2022-08-17T10:54:04.448Z,98023.13
2022-08-17T10:55:14.057Z,98027.13
2022-08-17T10:56:26.510Z,98030.16
2022-08-17T10:57:41.048Z,98026.72
2022-08-17T10:58:47.529Z,98018.34
2022-08-17T10:59:54.054Z,98025.56
2022-08-17T11:00:57.999Z,98023.63
2022-08-17T11:02:14.670Z,98017.91
2022-08-17T11:03:22.499Z,98012.84
2022-08-17T11:04:34.437Z,98015.06
2022-08-17T11:05:47.706Z,98013.47
2022-08-17T11:07:02.212Z,98010.72
2022-08-17T11:08:24.028Z,98014.50
2022-08-17T11:09:35.895Z,98010.25
2022-08-17T11:11:08.397Z,98006.13
2022-08-17T11:12:21.290Z,98008.31
2022-08-17T11:13:33.826Z,98007.91
2022-08-17T11:14:47.409Z,98012.78
2022-08-17T11:16:02.348Z,98013.78
2022-08-17T11:17:17.148Z,98013.09
2022-08-17T11:18:42.026Z,98007.91
2022-08-17T11:20:05.168Z,98012.97
2022-08-17T11:21:59.698Z,98011.19
2022-08-17T11:23:27.218Z,98010.81
2022-08-17T11:24:36.291Z,98014.94
2022-08-17T11:25:41.482Z,98014.69
2022-08-17T11:27:02.933Z,98013.44
2022-08-17T11:28:10.842Z,98014.19
2022-08-17T11:29:24.590Z,98011.59
2022-08-17T11:30:48.580Z,98020.59
2022-08-17T11:32:02.298Z,98013.91
2022-08-17T11:33:53.838Z,98016.78
2022-08-17T11:35:14.429Z,98020.00
2022-08-17T11:36:29.651Z,98017.75
2022-08-17T11:37:46.206Z,98018.47
2022-08-17T11:38:58.180Z,98012.47
2022-08-17T11:40:16.743Z,98011.53
2022-08-17T11:41:27.591Z,98020.25
2022-08-17T11:42:45.946Z,98011.19
2022-08-17T11:44:11.490Z,98012.00
2022-08-17T11:45:39.119Z,98007.22
2022-08-17T11:47:13.250Z,98008.63
2022-08-17T11:48:38.597Z,98014.88
2022-08-17T11:50:11.109Z,98015.00
2022-08-17T11:51:35.824Z,98015.47
2022-08-17T11:52:42.420Z,98015.91
2022-08-17T11:54:32.373Z,98017.63
2022-08-17T11:56:06.030Z,98000.00
2022-08-17T11:58:01.962Z,98017.81
2022-08-17T11:59:46.221Z,98015.78
2022-08-17T12:00:55.919Z,98007.50
2022-08-17T12:01:59.523Z,98014.00
2022-08-17T12:03:25.032Z,98001.47
2022-08-17T12:04:30.992Z,97997.75
2022-08-17T12:05:34.963Z,97998.22
2022-08-17T12:06:48.556Z,97994.19
2022-08-17T12:08:00.750Z,97989.47
2022-08-17T12:09:11.965Z,97991.63
2022-08-17T12:10:17.393Z,97997.78
2022-08-17T12:11:55.508Z,97991.50
2022-08-17T12:12:54.726Z,97988.47
2022-08-17T12:14:00.769Z,97988.47
2022-08-17T12:15:12.136Z,97990.22
2022-08-17T12:16:17.311Z,97991.63
2022-08-17T12:17:41.183Z,97992.66
2022-08-17T12:18:51.378Z,97987.03
2022-08-17T12:19:56.148Z,97988.09
2022-08-17T12:21:28.461Z,97983.41
2022-08-17T12:22:43.007Z,97985.13
2022-08-17T12:23:52.635Z,97982.63
2022-08-17T12:25:01.817Z,97985.69
2022-08-17T12:26:10.399Z,97989.56
2022-08-17T12:28:04.257Z,97990.06
2022-08-17T12:28:47.998Z,97985.09
2022-08-17T12:29:52.487Z,97988.88
2022-08-17T12:30:58.238Z,97983.63
2022-08-17T12:32:03.566Z,97987.53
2022-08-17T12:33:12.820Z,97985.72
2022-08-17T12:34:19.937Z,97981.53
2022-08-17T12:35:29.859Z,97988.59
2022-08-17T12:36:34.786Z,97976.75
2022-08-17T12:37:47.053Z,97981.13
2022-08-17T12:38:52.016Z,97983.94
2022-08-17T12:39:58.876Z,97979.19
2022-08-17T12:41:23.807Z,97985.41
2022-08-17T12:42:31.307Z,97985.53
2022-08-17T12:43:34.346Z,97986.47
2022-08-17T12:44:50.034Z,97978.06
2022-08-17T12:45:57.377Z,97990.13
2022-08-17T12:47:04.863Z,97999.34
2022-08-17T12:48:11.318Z,97991.72
2022-08-17T12:49:27.106Z,97989.88
2022-08-17T12:50:33.685Z,97990.41
2022-08-17T12:51:36.766Z,97987.50
2022-08-17T12:52:43.138Z,97986.88
2022-08-17T12:53:54.936Z,97988.94
2022-08-17T12:55:01.076Z,97986.63
2022-08-17T12:56:09.768Z,97992.88
2022-08-17T12:57:16.226Z,97995.94
2022-08-17T12:58:24.459Z,97993.16
2022-08-17T12:59:29.696Z,97988.53
2022-08-17T13:00:41.213Z,97986.81
2022-08-17T13:01:53.855Z,97984.53
2022-08-17T13:03:01.568Z,97984.31
2022-08-17T13:04:06.196Z,97988.97
2022-08-17T13:05:19.286Z,97983.13
2022-08-17T13:06:29.169Z,97987.81
2022-08-17T13:07:37.129Z,97980.22
2022-08-17T13:08:45.507Z,97985.28
2022-08-17T13:09:52.658Z,97988.91
2022-08-17T13:10:58.486Z,97983.00
2022-08-17T13:12:01.516Z,97990.56
2022-08-17T13:13:19.526Z,97991.72
2022-08-17T13:14:22.897Z,97992.44
2022-08-17T13:15:29.847Z,97989.00
2022-08-17T13:16:34.996Z,97986.69
2022-08-17T13:17:39.448Z,97985.91
2022-08-17T13:18:45.118Z,97983.91
2022-08-17T13:19:50.224Z,97983.56
2022-08-17T13:20:54.679Z,97981.31
2022-08-17T13:22:00.358Z,97980.00
2022-08-17T13:23:12.027Z,97977.22
2022-08-17T13:24:19.205Z,97978.31
2022-08-17T13:25:23.490Z,97985.44
2022-08-17T13:26:30.137Z,97980.28
2022-08-17T13:27:35.136Z,97975.63
2022-08-17T13:28:38.205Z,97986.84
2022-08-17T13:29:51.369Z,97977.50
2022-08-17T13:31:26.504Z,97976.22
2022-08-17T13:32:38.016Z,97978.53
2022-08-17T13:33:45.318Z,97977.25
2022-08-17T13:35:12.836Z,97974.19
2022-08-17T13:36:20.058Z,97978.91
2022-08-17T13:37:33.688Z,97987.84
2022-08-17T13:38:44.212Z,97982.44
2022-08-17T13:39:47.705Z,97982.94
2022-08-17T13:40:53.978Z,97969.59
2022-08-17T13:41:58.088Z,97968.44
2022-08-17T13:43:03.565Z,97981.50
2022-08-17T13:44:32.069Z,97972.34
2022-08-17T13:45:38.848Z,97970.16
2022-08-17T13:46:52.493Z,97970.41
2022-08-17T13:48:14.608Z,97975.31
2022-08-17T13:49:21.556Z,97972.88
2022-08-17T13:50:24.728Z,97976.41
2022-08-17T13:51:31.716Z,97965.56
2022-08-17T13:52:37.946Z,97970.28
2022-08-17T13:53:58.563Z,97970.63
2022-08-17T13:55:05.579Z,97978.69
2022-08-17T13:56:37.408Z,97976.53
2022-08-17T13:57:36.108Z,97983.75
2022-08-17T13:58:42.395Z,97976.88
2022-08-17T13:59:54.513Z,97971.44
2022-08-17T14:00:58.732Z,97974.22
2022-08-17T14:02:04.015Z,97972.34